Time;durP1;ratioP1;P1;durP2;ratioP2;P2;SDS_P1;SDS_P2;PMS_P1;PMS_P2;Temp;Humidity;BMP_temperature;BMP_pressure;BME280_temperature;BME280_humidity;BME280_pressure;Samples;Min_cycle;Max_cycle;Signal;HPM_P1;HPM_P2
2022/10/07 00:00:21;;;;;;;10.30;2.42;;;9.80;99.90;;;;;;4865570;29;20481;-84
2022/10/07 00:02:46;;;;;;;10.05;2.55;;;9.70;99.90;;;;;;4896202;29;20128;-84
2022/10/07 00:05:12;;;;;;;8.77;2.50;;;9.80;99.90;;;;;;4863495;29;20044;-84
2022/10/07 00:07:38;;;;;;;11.20;2.50;;;9.70;99.90;;;;;;4869753;29;20096;-83
2022/10/07 00:10:04;;;;;;;10.70;2.83;;;9.70;99.90;;;;;;4850175;29;20056;-84
2022/10/07 00:12:30;;;;;;;12.73;2.72;;;9.70;99.90;;;;;;4882369;29;20033;-84
2022/10/07 00:14:58;;;;;;;12.65;2.30;;;9.70;99.90;;;;;;4848725;29;20092;-84
2022/10/07 00:17:26;;;;;;;10.35;2.85;;;9.70;99.90;;;;;;4872861;29;20044;-83
2022/10/07 00:19:52;;;;;;;6.95;2.45;;;9.70;99.90;;;;;;4880355;29;20041;-85
2022/10/07 00:22:18;;;;;;;9.18;2.70;;;9.70;99.90;;;;;;4882313;29;20060;-84
2022/10/07 00:24:44;;;;;;;8.27;2.85;;;9.70;99.90;;;;;;4879981;29;20468;-84
2022/10/07 00:27:09;;;;;;;9.52;2.60;;;9.70;99.90;;;;;;4884731;29;20080;-84
2022/10/07 00:29:35;;;;;;;13.07;2.95;;;9.60;99.90;;;;;;4880831;29;20690;-84
2022/10/07 00:32:01;;;;;;;11.73;2.80;;;9.70;99.90;;;;;;4895686;29;20116;-84
2022/10/07 00:34:28;;;;;;;13.02;2.72;;;9.70;99.90;;;;;;4882631;29;20053;-84
2022/10/07 00:36:54;;;;;;;6.00;2.25;;;9.60;99.90;;;;;;4877449;29;20048;-84
2022/10/07 00:39:20;;;;;;;9.23;2.70;;;9.70;99.90;;;;;;4880933;29;20037;-84
2022/10/07 00:41:50;;;;;;;7.47;2.70;;;9.70;99.90;;;;;;4878138;29;20037;-84
2022/10/07 00:44:32;;;;;;;6.25;2.20;;;9.60;99.90;;;;;;4882036;29;20037;-84
2022/10/07 00:47:02;;;;;;;15.30;2.70;;;9.60;99.90;;;;;;4855092;29;20256;-85
2022/10/07 00:49:29;;;;;;;11.38;2.80;;;9.50;99.90;;;;;;4867788;29;20615;-84
2022/10/07 00:51:56;;;;;;;5.47;2.50;;;9.50;99.90;;;;;;4882342;29;20053;-83
2022/10/07 00:54:22;;;;;;;8.63;2.58;;;9.50;99.90;;;;;;4883667;29;20115;-84
2022/10/07 00:56:50;;;;;;;10.85;2.80;;;9.50;99.90;;;;;;4888131;29;20033;-84
2022/10/07 00:59:17;;;;;;;10.32;2.90;;;9.40;99.90;;;;;;4866089;29;20040;-84
2022/10/07 01:01:43;;;;;;;13.90;2.80;;;9.50;99.90;;;;;;4868350;29;20150;-84
2022/10/07 01:04:13;;;;;;;9.05;2.92;;;9.40;99.90;;;;;;4881255;29;20540;-85
2022/10/07 01:06:40;;;;;;;13.30;3.25;;;9.40;99.90;;;;;;4870397;29;20040;-83
2022/10/07 01:09:08;;;;;;;11.63;3.22;;;9.40;99.90;;;;;;4883530;29;20151;-84
2022/10/07 01:11:55;;;;;;;10.27;3.05;;;9.30;99.90;;;;;;4837757;29;20144;-84
2022/10/07 01:14:33;;;;;;;9.68;3.15;;;9.30;99.90;;;;;;4882685;29;20059;-84
2022/10/07 01:17:01;;;;;;;8.48;2.55;;;9.40;99.90;;;;;;4851531;29;20072;-84
2022/10/07 01:20:05;;;;;;;8.02;3.28;;;9.30;99.90;;;;;;4862113;29;20041;-84
2022/10/07 01:22:48;;;;;;;8.75;3.25;;;9.30;99.90;;;;;;4867273;29;20088;-84
2022/10/07 01:25:33;;;;;;;9.25;3.40;;;9.30;99.90;;;;;;4871766;29;20037;-84
2022/10/07 01:28:11;;;;;;;9.75;3.17;;;9.40;99.90;;;;;;4871299;29;20528;-84
2022/10/07 01:30:41;;;;;;;11.27;3.03;;;9.30;99.90;;;;;;4900566;29;20125;-84
2022/10/07 01:33:14;;;;;;;11.35;3.42;;;9.30;99.90;;;;;;4854444;29;20492;-84
2022/10/07 01:35:42;;;;;;;10.80;3.42;;;9.30;99.90;;;;;;4887584;29;20049;-84
2022/10/07 01:38:11;;;;;;;13.55;3.70;;;9.30;99.90;;;;;;4864944;29;20140;-84
2022/10/07 01:41:07;;;;;;;9.27;3.35;;;9.30;99.90;;;;;;4884607;29;20502;-84
2022/10/07 01:43:33;;;;;;;6.43;3.40;;;9.30;99.90;;;;;;4860341;29;20178;-84
2022/10/07 01:46:01;;;;;;;11.32;3.65;;;9.30;99.90;;;;;;4884820;29;20049;-84
2022/10/07 01:48:27;;;;;;;9.85;3.53;;;9.30;99.90;;;;;;4886624;29;20115;-84
2022/10/07 01:50:53;;;;;;;11.80;3.40;;;9.30;99.90;;;;;;4868797;29;20478;-84
2022/10/07 01:53:38;;;;;;;12.68;3.90;;;9.30;99.90;;;;;;4888974;29;20384;-84
2022/10/07 01:56:22;;;;;;;11.77;3.13;;;9.30;99.90;;;;;;4872279;29;20041;-84
2022/10/07 01:59:16;;;;;;;11.02;4.30;;;9.40;99.90;;;;;;4867198;29;20095;-84
2022/10/07 02:02:05;;;;;;;10.75;3.50;;;9.20;99.90;;;;;;4872793;29;20385;-84
2022/10/07 02:04:37;;;;;;;11.10;3.30;;;9.30;99.90;;;;;;4859290;29;20364;-84
2022/10/07 02:07:16;;;;;;;11.55;3.45;;;9.30;99.90;;;;;;4855753;29;20478;-84
2022/10/07 02:09:49;;;;;;;10.98;3.25;;;9.30;99.90;;;;;;4884328;29;20342;-84
2022/10/07 02:12:22;;;;;;;8.23;3.75;;;9.20;99.90;;;;;;4882145;29;20048;-84
2022/10/07 02:14:55;;;;;;;8.30;3.42;;;9.20;99.90;;;;;;4884967;29;20041;-84
2022/10/07 02:17:25;;;;;;;9.88;4.03;;;9.10;99.90;;;;;;4881868;29;20104;-84
2022/10/07 02:19:55;;;;;;;8.60;3.97;;;9.20;99.90;;;;;;4880528;29;20384;-84
2022/10/07 02:22:24;;;;;;;12.65;4.28;;;9.10;99.90;;;;;;4900024;29;20112;-84
2022/10/07 02:24:54;;;;;;;9.30;3.22;;;9.20;99.90;;;;;;4883964;29;20041;-84
2022/10/07 02:27:23;;;;;;;14.27;3.95;;;9.10;99.90;;;;;;4855715;29;20044;-84
2022/10/07 02:29:55;;;;;;;11.88;3.80;;;9.10;99.90;;;;;;4883904;29;20323;-84
2022/10/07 02:32:27;;;;;;;10.00;4.00;;;9.10;99.90;;;;;;4882054;29;20502;-84
2022/10/07 02:34:58;;;;;;;11.20;4.05;;;9.10;99.90;;;;;;4895654;29;20048;-84
2022/10/07 02:37:34;;;;;;;12.88;3.90;;;9.10;99.90;;;;;;4883357;29;20112;-84
2022/10/07 02:40:01;;;;;;;8.00;4.15;;;9.10;99.90;;;;;;4868868;29;20033;-84
2022/10/07 02:42:38;;;;;;;8.38;3.55;;;9.10;99.90;;;;;;4901425;29;20078;-84
2022/10/07 02:45:36;;;;;;;10.73;3.90;;;9.00;99.90;;;;;;4856041;29;20048;-84
2022/10/07 02:48:08;;;;;;;11.85;4.32;;;9.00;99.90;;;;;;4853680;29;20056;-84
2022/10/07 02:50:41;;;;;;;12.18;3.80;;;9.00;99.90;;;;;;4882022;29;20172;-84
2022/10/07 02:53:08;;;;;;;12.10;4.28;;;9.00;99.90;;;;;;4885484;29;20115;-84
2022/10/07 02:55:34;;;;;;;14.20;4.50;;;9.10;99.90;;;;;;4886433;29;20575;-84
2022/10/07 02:58:04;;;;;;;15.05;3.78;;;9.00;99.90;;;;;;4885741;29;20045;-84
2022/10/07 03:00:33;;;;;;;15.10;4.38;;;9.00;99.90;;;;;;4883815;29;20053;-84
2022/10/07 03:03:01;;;;;;;14.30;4.60;;;9.00;99.90;;;;;;4869406;29;20517;-84
2022/10/07 03:05:28;;;;;;;13.85;4.05;;;8.90;99.90;;;;;;4857227;29;20041;-84
2022/10/07 03:08:00;;;;;;;15.73;4.57;;;8.90;99.90;;;;;;4884939;29;20116;-84
2022/10/07 03:10:28;;;;;;;14.52;4.40;;;8.90;99.90;;;;;;4897171;29;20037;-84
2022/10/07 03:12:54;;;;;;;10.57;4.00;;;9.00;99.90;;;;;;4895754;29;20036;-84
2022/10/07 03:15:22;;;;;;;13.38;4.30;;;8.90;99.90;;;;;;4883880;29;20438;-83
2022/10/07 03:17:48;;;;;;;14.75;4.75;;;8.90;99.90;;;;;;4872117;29;20350;-84
2022/10/07 03:20:16;;;;;;;12.95;4.10;;;8.90;99.90;;;;;;4868776;29;20041;-84
2022/10/07 03:22:42;;;;;;;17.52;4.20;;;9.00;99.90;;;;;;4878983;29;20104;-84
2022/10/07 03:25:12;;;;;;;13.43;4.18;;;9.00;99.90;;;;;;4884417;29;20563;-84
2022/10/07 03:27:38;;;;;;;11.23;3.75;;;8.90;99.90;;;;;;4896817;29;20040;-84
2022/10/07 03:30:05;;;;;;;12.98;4.13;;;9.00;99.90;;;;;;4895650;29;20647;-84
2022/10/07 03:32:31;;;;;;;12.20;4.10;;;8.90;99.90;;;;;;4871535;29;20502;-84
2022/10/07 03:34:57;;;;;;;13.23;4.70;;;8.90;99.90;;;;;;4882959;29;20679;-85
2022/10/07 03:37:23;;;;;;;15.43;4.38;;;8.80;99.90;;;;;;4869473;29;20052;-84
2022/10/07 03:39:51;;;;;;;12.93;3.97;;;8.80;99.90;;;;;;4868624;29;20041;-84
2022/10/07 03:42:16;;;;;;;17.08;4.60;;;8.80;99.90;;;;;;4883601;29;20322;-84
2022/10/07 03:44:42;;;;;;;20.08;4.15;;;8.80;99.90;;;;;;4883562;29;20048;-84
2022/10/07 03:47:08;;;;;;;15.00;4.68;;;8.70;99.90;;;;;;4867762;29;20084;-84
2022/10/07 03:49:34;;;;;;;14.18;5.22;;;8.80;99.90;;;;;;4883904;29;20439;-84
2022/10/07 03:52:01;;;;;;;19.10;4.97;;;8.70;99.90;;;;;;4864637;29;20050;-84
2022/10/07 03:54:27;;;;;;;16.85;4.70;;;8.70;99.90;;;;;;4851037;29;20059;-84
2022/10/07 03:56:53;;;;;;;13.15;4.75;;;8.70;99.90;;;;;;4872336;29;20085;-85
2022/10/07 03:59:22;;;;;;;14.60;4.45;;;8.70;99.90;;;;;;4880449;29;20679;-84
2022/10/07 04:01:48;;;;;;;11.15;4.90;;;8.60;99.90;;;;;;4869034;29;20277;-84
2022/10/07 04:04:13;;;;;;;15.32;5.55;;;8.60;99.90;;;;;;4853249;29;20278;-84
2022/10/07 04:06:42;;;;;;;13.02;4.72;;;8.60;99.90;;;;;;4884224;29;20374;-84
2022/10/07 04:09:10;;;;;;;13.25;4.72;;;8.70;99.90;;;;;;4870215;29;20067;-84
2022/10/07 04:11:40;;;;;;;13.45;4.95;;;8.70;99.90;;;;;;4867793;29;20055;-83
2022/10/07 04:14:06;;;;;;;13.55;5.10;;;8.60;99.90;;;;;;4869626;29;20104;-84
2022/10/07 04:16:32;;;;;;;14.90;4.70;;;8.50;99.90;;;;;;4882726;29;20044;-84
2022/10/07 04:18:59;;;;;;;18.73;5.00;;;8.50;99.90;;;;;;4883921;29;20036;-84
2022/10/07 04:21:24;;;;;;;13.68;5.47;;;8.60;99.90;;;;;;4882537;29;20128;-84
2022/10/07 04:23:50;;;;;;;15.50;5.68;;;8.70;99.90;;;;;;4879177;29;20407;-84
2022/10/07 04:26:19;;;;;;;19.13;5.45;;;8.60;99.90;;;;;;4879639;29;20061;-84
2022/10/07 04:28:44;;;;;;;17.35;5.70;;;8.70;99.90;;;;;;4868898;29;20133;-84
2022/10/07 04:31:10;;;;;;;17.63;5.63;;;8.60;99.90;;;;;;4894365;29;20551;-84
2022/10/07 04:33:40;;;;;;;19.77;6.05;;;8.70;99.90;;;;;;4883972;29;20088;-85
2022/10/07 04:36:08;;;;;;;11.98;5.00;;;8.60;99.90;;;;;;4879510;29;20145;-84
2022/10/07 04:38:34;;;;;;;12.15;5.97;;;8.70;99.90;;;;;;4837940;29;20048;-84
2022/10/07 04:41:04;;;;;;;19.25;5.63;;;8.70;99.90;;;;;;4867818;29;20333;-85
2022/10/07 04:43:32;;;;;;;14.80;5.00;;;8.70;99.90;;;;;;4895272;29;20037;-84
2022/10/07 04:46:01;;;;;;;17.45;5.32;;;8.70;99.90;;;;;;4881096;29;20048;-84
2022/10/07 04:48:27;;;;;;;13.00;5.10;;;8.70;99.90;;;;;;4883520;29;20040;-84
2022/10/07 04:50:53;;;;;;;16.00;6.45;;;8.70;99.90;;;;;;4880428;29;20047;-85
2022/10/07 04:53:19;;;;;;;16.80;5.40;;;8.70;99.90;;;;;;4882023;29;20053;-85
2022/10/07 04:55:50;;;;;;;17.50;5.50;;;8.70;99.90;;;;;;4883490;29;20081;-84
2022/10/07 04:58:19;;;;;;;18.45;6.07;;;8.80;99.90;;;;;;4882983;29;20096;-84
2022/10/07 05:00:50;;;;;;;14.25;5.70;;;9.00;99.90;;;;;;4878254;29;20060;-85
2022/10/07 05:03:17;;;;;;;17.13;5.45;;;8.90;99.90;;;;;;4847949;29;20454;-84
2022/10/07 05:05:49;;;;;;;20.00;5.80;;;9.00;99.90;;;;;;4877351;29;20046;-85
2022/10/07 05:08:18;;;;;;;16.13;5.65;;;9.00;99.90;;;;;;4865781;29;20045;-85
2022/10/07 05:10:43;;;;;;;17.02;5.47;;;8.90;99.90;;;;;;4862668;29;20049;-84
2022/10/07 05:13:15;;;;;;;20.75;5.38;;;9.00;99.90;;;;;;4864924;29;20072;-85
2022/10/07 05:15:55;;;;;;;13.85;5.20;;;9.10;99.90;;;;;;4863195;29;20045;-85
2022/10/07 05:18:23;;;;;;;18.15;5.60;;;9.00;99.90;;;;;;4869360;29;20049;-85
2022/10/07 05:20:49;;;;;;;18.92;5.20;;;9.00;99.90;;;;;;4855336;29;20211;-85
2022/10/07 05:23:17;;;;;;;15.10;5.18;;;9.10;99.90;;;;;;4853098;29;20131;-85
2022/10/07 05:25:43;;;;;;;15.20;4.68;;;9.10;99.90;;;;;;4848181;29;20545;-85
2022/10/07 05:28:10;;;;;;;20.95;5.50;;;9.10;99.90;;;;;;4847441;29;20051;-85
2022/10/07 05:30:36;;;;;;;16.08;4.57;;;9.20;99.90;;;;;;4864075;29;20105;-84
2022/10/07 05:33:03;;;;;;;16.23;4.80;;;9.20;99.90;;;;;;4863770;29;20045;-85
2022/10/07 05:35:30;;;;;;;16.88;4.78;;;9.30;99.90;;;;;;4855876;29;20088;-85
2022/10/07 05:37:55;;;;;;;16.33;5.32;;;9.30;99.90;;;;;;4866455;29;20382;-85
2022/10/07 05:40:21;;;;;;;15.38;4.13;;;9.30;99.90;;;;;;4851643;29;20088;-85
2022/10/07 05:42:48;;;;;;;13.73;4.75;;;9.30;99.90;;;;;;4852696;29;20480;-86
2022/10/07 05:45:14;;;;;;;12.90;4.63;;;9.40;99.90;;;;;;4863255;29;20046;-85
2022/10/07 05:47:40;;;;;;;20.08;4.97;;;9.30;99.90;;;;;;4879588;29;20407;-84
2022/10/07 05:50:06;;;;;;;15.27;4.25;;;9.30;99.90;;;;;;4853383;29;20133;-85
2022/10/07 05:52:34;;;;;;;11.05;4.25;;;9.40;99.90;;;;;;4878926;29;20056;-85
2022/10/07 05:55:06;;;;;;;11.90;4.32;;;9.40;99.90;;;;;;4863671;29;20045;-85
2022/10/07 05:57:32;;;;;;;20.42;5.35;;;9.40;99.90;;;;;;4861644;29;20234;-85
2022/10/07 05:59:58;;;;;;;16.88;5.10;;;9.40;99.90;;;;;;4849230;29;20053;-85
2022/10/07 06:02:24;;;;;;;14.15;4.40;;;9.50;99.90;;;;;;4876276;29;20057;-85
2022/10/07 06:04:50;;;;;;;13.98;5.40;;;9.50;99.90;;;;;;4875722;29;20391;-86
2022/10/07 06:07:16;;;;;;;18.38;4.63;;;9.50;99.90;;;;;;4858790;29;20050;-85
2022/10/07 06:15:11;;;;;;;19.10;5.07;;;9.60;99.90;;;;;;4868903;29;20049;-86
2022/10/07 06:17:44;;;;;;;16.73;5.47;;;9.70;99.90;;;;;;4875061;29;20175;-85
2022/10/07 06:20:12;;;;;;;18.52;5.22;;;9.70;99.90;;;;;;4849076;29;20418;-85
2022/10/07 06:22:38;;;;;;;19.90;5.78;;;9.70;99.90;;;;;;4864490;29;20101;-85
2022/10/07 06:25:04;;;;;;;10.70;5.28;;;9.80;99.90;;;;;;4850719;29;20049;-86
2022/10/07 06:27:29;;;;;;;20.42;5.63;;;9.80;99.90;;;;;;4880464;29;20041;-85
2022/10/07 06:29:55;;;;;;;22.73;5.60;;;9.80;99.90;;;;;;4848297;29;20053;-85
2022/10/07 06:32:21;;;;;;;14.35;5.50;;;9.90;99.90;;;;;;4853586;29;20045;-86
2022/10/07 06:34:46;;;;;;;18.30;4.90;;;10.00;99.90;;;;;;4877180;29;20041;-85
2022/10/07 06:37:15;;;;;;;11.35;5.35;;;10.10;99.90;;;;;;4881973;29;20037;-86
2022/10/07 06:39:40;;;;;;;18.45;5.40;;;10.10;99.90;;;;;;4847555;29;20041;-85
2022/10/07 06:42:06;;;;;;;12.13;5.10;;;10.20;99.90;;;;;;4866176;29;20046;-86
2022/10/07 06:44:34;;;;;;;13.80;4.68;;;10.20;99.90;;;;;;4848604;29;20128;-86
2022/10/07 06:47:01;;;;;;;16.75;5.30;;;10.20;99.90;;;;;;4849836;29;20042;-86
2022/10/07 06:49:27;;;;;;;13.30;5.50;;;10.30;99.90;;;;;;4861055;29;20049;-86
2022/10/07 06:51:52;;;;;;;14.23;5.20;;;10.30;99.90;;;;;;4839824;29;20592;-85
2022/10/07 06:54:18;;;;;;;13.35;4.95;;;10.30;99.90;;;;;;4852528;29;20425;-85
2022/10/07 06:56:46;;;;;;;15.68;4.72;;;10.40;99.90;;;;;;4877908;29;20089;-86
2022/10/07 06:59:11;;;;;;;13.73;4.90;;;10.40;99.90;;;;;;4851701;29;20180;-85
2022/10/07 07:01:37;;;;;;;17.77;4.70;;;10.50;99.90;;;;;;4861342;29;20129;-85
2022/10/07 07:04:03;;;;;;;14.88;4.32;;;10.50;99.90;;;;;;4858903;29;20042;-86
2022/10/07 07:06:29;;;;;;;14.20;4.53;;;10.60;99.90;;;;;;4817883;29;20049;-86
2022/10/07 07:08:57;;;;;;;10.32;4.65;;;10.60;99.90;;;;;;4829617;29;20033;-86
2022/10/07 07:11:35;;;;;;;14.23;4.47;;;10.60;99.90;;;;;;4845922;29;20050;-85
2022/10/07 07:14:03;;;;;;;11.77;4.53;;;10.60;99.90;;;;;;4844402;29;20088;-86
2022/10/07 07:16:29;;;;;;;13.05;4.72;;;10.70;99.90;;;;;;4831370;29;20473;-86
2022/10/07 07:19:03;;;;;;;19.63;5.28;;;10.80;99.90;;;;;;4843023;29;20040;-85
2022/10/07 07:21:32;;;;;;;10.65;4.50;;;10.80;99.90;;;;;;4831526;29;20052;-86
2022/10/07 07:23:58;;;;;;;20.38;5.93;;;11.00;99.90;;;;;;4829026;29;20045;-86
2022/10/07 07:26:26;;;;;;;19.33;4.38;;;10.90;99.90;;;;;;4845292;29;20053;-85
2022/10/07 07:29:01;;;;;;;13.70;4.45;;;11.10;99.90;;;;;;4823133;29;20102;-85
2022/10/07 07:31:28;;;;;;;14.32;4.50;;;11.10;99.90;;;;;;4816072;29;20053;-86
2022/10/07 07:33:55;;;;;;;12.80;4.35;;;11.20;99.90;;;;;;4845392;29;20049;-85
2022/10/07 07:36:23;;;;;;;13.23;4.30;;;11.20;99.90;;;;;;4831388;29;20558;-86
2022/10/07 07:39:00;;;;;;;12.27;4.30;;;11.30;99.90;;;;;;4816701;29;20499;-85
2022/10/07 07:41:29;;;;;;;11.07;4.50;;;11.30;99.90;;;;;;4844929;29;20045;-86
2022/10/07 07:43:57;;;;;;;11.85;3.83;;;11.40;99.90;;;;;;4830462;29;20068;-86
2022/10/07 07:46:26;;;;;;;12.75;4.40;;;11.50;99.90;;;;;;4814933;29;20138;-86
2022/10/07 07:48:53;;;;;;;12.27;4.35;;;11.60;99.90;;;;;;4843369;29;20042;-86
2022/10/07 07:51:22;;;;;;;14.35;4.35;;;11.60;99.90;;;;;;4828608;29;20053;-86
2022/10/07 07:53:51;;;;;;;15.93;5.53;;;11.60;99.90;;;;;;4841274;29;20244;-86
2022/10/07 07:56:18;;;;;;;15.20;4.40;;;11.70;99.90;;;;;;4847243;29;20146;-86
2022/10/07 07:58:45;;;;;;;18.13;4.38;;;11.80;99.90;;;;;;4830077;29;20498;-86
2022/10/07 08:01:13;;;;;;;15.02;4.45;;;11.80;99.90;;;;;;4863991;29;20153;-86
2022/10/07 08:03:42;;;;;;;12.65;3.92;;;12.00;99.90;;;;;;4877362;29;20512;-86
2022/10/07 08:06:09;;;;;;;12.15;4.10;;;12.00;99.90;;;;;;4847852;29;20489;-86
2022/10/07 08:08:35;;;;;;;13.38;3.90;;;12.10;99.90;;;;;;4878372;29;20053;-86
2022/10/07 08:11:07;;;;;;;13.82;3.60;;;12.30;99.90;;;;;;4849413;29;20053;-85
2022/10/07 08:13:34;;;;;;;15.02;4.05;;;12.10;99.90;;;;;;4846548;29;20045;-86
2022/10/07 08:16:01;;;;;;;18.52;4.28;;;12.20;99.90;;;;;;4848911;29;20037;-86
2022/10/07 08:18:26;;;;;;;14.00;3.60;;;12.30;99.90;;;;;;4848507;29;20041;-86
2022/10/07 08:20:57;;;;;;;9.93;3.60;;;12.40;99.90;;;;;;4847541;29;20488;-85
2022/10/07 08:23:25;;;;;;;12.40;4.00;;;12.50;99.90;;;;;;4847122;29;20147;-85
2022/10/07 08:25:55;;;;;;;14.80;3.97;;;12.70;99.90;;;;;;4863465;29;20052;-86
2022/10/07 08:28:21;;;;;;;13.32;4.10;;;12.60;99.90;;;;;;4867594;29;20517;-87
2022/10/07 08:30:48;;;;;;;13.82;3.30;;;12.80;99.90;;;;;;4833332;29;20060;-86
2022/10/07 08:33:17;;;;;;;15.32;3.20;;;13.00;99.90;;;;;;4847215;29;20529;-86
2022/10/07 08:35:48;;;;;;;20.67;3.47;;;13.10;99.90;;;;;;4847209;29;20041;-86
2022/10/07 08:38:14;;;;;;;16.50;4.22;;;13.10;99.90;;;;;;4863410;29;20404;-87
2022/10/07 08:40:47;;;;;;;13.25;3.67;;;13.20;99.90;;;;;;4849047;29;20253;-86
2022/10/07 08:43:13;;;;;;;9.52;3.05;;;13.30;99.90;;;;;;4882642;29;20111;-87
2022/10/07 08:45:38;;;;;;;16.38;3.25;;;13.40;99.90;;;;;;4832868;29;20081;-86
2022/10/07 08:48:14;;;;;;;14.45;2.67;;;13.60;99.90;;;;;;4831497;29;20561;-86
2022/10/07 08:51:01;;;;;;;13.98;3.72;;;13.60;99.90;;;;;;4862952;29;20390;-86
2022/10/07 08:53:39;;;;;;;11.32;3.40;;;13.70;99.90;;;;;;4861030;29;20366;-86
2022/10/07 08:56:15;;;;;;;13.90;3.50;;;13.90;99.90;;;;;;4864630;29;20045;-87
2022/10/07 08:58:56;;;;;;;14.15;3.15;;;13.90;99.90;;;;;;4830671;29;20045;-86
2022/10/07 09:01:57;;;;;;;13.52;3.00;;;14.10;99.90;;;;;;4846277;29;20137;-87
2022/10/07 09:04:52;;;;;;;10.23;3.08;;;14.20;99.90;;;;;;4848594;29;20044;-87
2022/10/07 09:07:51;;;;;;;11.75;3.22;;;14.20;99.90;;;;;;4842136;29;20152;-87
2022/10/07 09:10:40;;;;;;;13.32;3.50;;;14.40;99.90;;;;;;4825490;29;20056;-86
2022/10/07 09:13:12;;;;;;;16.77;3.50;;;14.30;99.90;;;;;;4872438;29;20056;-86
2022/10/07 09:15:51;;;;;;;12.65;3.88;;;14.40;99.90;;;;;;4844645;29;20041;-86
2022/10/07 09:18:20;;;;;;;14.00;3.38;;;14.60;99.90;;;;;;4846063;29;20344;-88
2022/10/07 09:20:52;;;;;;;17.42;3.92;;;14.60;99.90;;;;;;4860445;29;20357;-87
2022/10/07 09:23:21;;;;;;;8.50;2.90;;;14.70;99.90;;;;;;4864532;29;20056;-87
2022/10/07 09:25:47;;;;;;;11.55;3.65;;;14.80;99.90;;;;;;4875451;29;20088;-87
2022/10/07 09:28:16;;;;;;;12.23;3.08;;;14.80;99.90;;;;;;4875078;29;20528;-87
2022/10/07 09:30:42;;;;;;;11.07;3.38;;;14.80;99.90;;;;;;4877407;29;20476;-86
2022/10/07 09:33:19;;;;;;;13.73;3.40;;;14.90;99.90;;;;;;4874229;29;20432;-86
2022/10/07 09:35:53;;;;;;;13.63;3.38;;;14.90;99.90;;;;;;4860421;29;20041;-87
2022/10/07 09:38:32;;;;;;;13.93;3.75;;;14.90;99.90;;;;;;4862595;29;20084;-87
2022/10/07 09:41:15;;;;;;;12.40;3.50;;;15.10;99.90;;;;;;4843826;29;20226;-87
2022/10/07 09:44:03;;;;;;;17.48;3.55;;;15.10;99.90;;;;;;4826948;29;20354;-86
2022/10/07 09:46:46;;;;;;;19.42;5.45;;;15.30;99.90;;;;;;4848127;29;20037;-86
2022/10/07 09:49:27;;;;;;;13.32;3.70;;;15.30;99.90;;;;;;4880471;29;20428;-87
2022/10/07 09:52:01;;;;;;;10.60;3.00;;;15.50;99.90;;;;;;4865709;29;20044;-86
2022/10/07 09:54:28;;;;;;;11.30;3.40;;;15.60;99.90;;;;;;4879656;29;20045;-86
2022/10/07 09:56:57;;;;;;;12.68;3.20;;;15.70;99.90;;;;;;4880038;29;20437;-87
2022/10/07 09:59:31;;;;;;;8.45;2.80;;;15.80;85.10;;;;;;4866096;29;20568;-86
2022/10/07 10:01:59;;;;;;;10.32;3.28;;;15.80;1.00;;;;;;4866095;29;20052;-85
2022/10/07 10:04:34;;;;;;;11.13;2.63;;;16.10;99.90;;;;;;4864955;29;20121;-86
2022/10/07 10:07:04;;;;;;;12.38;3.17;;;16.00;1.00;;;;;;4869872;29;20104;-87
2022/10/07 10:09:31;;;;;;;13.05;3.15;;;16.00;99.90;;;;;;4899075;29;20040;-87
2022/10/07 10:12:18;;;;;;;11.48;3.70;;;15.90;1.00;;;;;;4899726;29;20049;-87
2022/10/07 10:14:54;;;;;;;12.00;2.97;;;16.10;1.00;;;;;;4881753;29;20123;-87
2022/10/07 10:17:25;;;;;;;11.52;2.88;;;16.00;99.90;;;;;;4849096;29;20069;-86
2022/10/07 10:19:54;;;;;;;13.52;2.97;;;16.20;99.90;;;;;;4850437;29;20040;-86
2022/10/07 10:22:29;;;;;;;8.80;3.00;;;16.20;1.00;;;;;;4869756;29;20541;-86
2022/10/07 10:28:00;;;;;;;13.77;3.60;;;16.70;1.00;;;;;;4853119;29;20239;-86
2022/10/07 10:30:29;;;;;;;10.05;2.40;;;17.00;99.90;;;;;;4869158;29;20049;-86
2022/10/07 10:33:18;;;;;;;8.50;2.83;;;16.90;1.00;;;;;;4867721;29;20041;-87
2022/10/07 10:36:02;;;;;;;13.70;3.45;;;16.90;47.40;;;;;;4866398;29;20053;-86
2022/10/07 10:38:45;;;;;;;12.23;2.97;;;17.00;99.90;;;;;;4882819;29;20120;-88
2022/10/07 10:41:30;;;;;;;14.50;3.15;;;16.80;99.90;;;;;;4868942;29;20073;-87
2022/10/07 10:44:14;;;;;;;14.68;2.97;;;16.80;99.90;;;;;;4853128;29;20433;-87
2022/10/07 10:46:56;;;;;;;9.85;2.50;;;16.80;99.90;;;;;;4899539;29;20087;-87
2022/10/07 10:49:37;;;;;;;10.73;2.85;;;16.90;99.90;;;;;;4853206;29;20060;-87
2022/10/07 10:52:24;;;;;;;10.85;3.40;;;16.90;99.90;;;;;;4873324;29;20359;-87
2022/10/07 10:55:17;;;;;;;8.20;2.50;;;16.90;1.40;;;;;;4884772;29;20091;-88
2022/10/07 10:58:07;;;;;;;7.97;2.28;;;17.20;99.90;;;;;;4882021;29;20043;-86
2022/10/07 11:00:48;;;;;;;14.13;2.78;;;17.30;99.90;;;;;;4858808;29;20057;-87
2022/10/07 11:03:33;;;;;;;11.13;2.45;;;17.30;17.90;;;;;;4868537;29;20049;-87
2022/10/07 11:06:04;;;;;;;12.55;2.75;;;17.40;1.00;;;;;;4881609;29;20048;-87
2022/10/07 11:08:34;;;;;;;13.00;3.13;;;17.50;1.00;;;;;;4899571;29;20048;-87
2022/10/07 11:11:06;;;;;;;9.98;2.55;;;17.70;99.90;;;;;;4883777;29;20461;-88
2022/10/07 11:13:53;;;;;;;12.57;2.40;;;17.80;99.90;;;;;;4883194;29;20048;-87
2022/10/07 11:16:30;;;;;;;11.35;2.60;;;17.70;99.90;;;;;;4885515;29;20044;-87
2022/10/07 11:19:15;;;;;;;10.95;2.70;;;17.60;99.90;;;;;;4867496;29;20498;-86
2022/10/07 11:21:49;;;;;;;12.30;2.50;;;17.50;73.80;;;;;;4882490;29;20063;-86
2022/10/07 11:24:38;;;;;;;11.10;2.58;;;17.20;1.00;;;;;;4866286;29;20120;-87
2022/10/07 11:27:23;;;;;;;16.48;2.80;;;17.50;6.50;;;;;;4863633;29;20045;-87
2022/10/07 11:30:16;;;;;;;11.55;2.00;;;17.80;1.00;;;;;;4881944;29;20410;-86
2022/10/07 11:33:18;;;;;;;9.27;2.45;;;18.00;33.20;;;;;;4857303;29;20084;-87
2022/10/07 11:35:56;;;;;;;8.27;2.30;;;17.90;1.00;;;;;;4827268;29;20160;-87
2022/10/07 11:38:32;;;;;;;8.73;2.22;;;17.90;99.90;;;;;;4874450;29;20170;-87
2022/10/07 11:41:05;;;;;;;12.55;2.17;;;18.10;82.80;;;;;;4882933;29;20037;-87
2022/10/07 11:43:45;;;;;;;12.18;3.03;;;18.50;1.00;;;;;;4865589;29;20505;-87
2022/10/07 11:46:20;;;;;;;11.05;2.50;;;18.40;78.10;;;;;;4866879;29;20041;-87
2022/10/07 11:48:48;;;;;;;12.20;2.50;;;18.70;99.90;;;;;;4855253;29;20079;-86
2022/10/07 11:51:46;;;;;;;9.23;1.95;;;18.70;99.90;;;;;;4882967;29;20507;-88
2022/10/07 11:54:15;;;;;;;10.40;2.38;;;18.40;99.90;;;;;;4849246;29;20572;-88
2022/10/07 11:56:52;;;;;;;9.07;2.58;;;18.20;1.00;;;;;;4881966;29;20511;-86
2022/10/07 11:59:35;;;;;;;10.07;2.47;;;18.20;10.70;;;;;;4860005;29;20046;-87
2022/10/07 12:02:03;;;;;;;14.02;2.75;;;18.30;99.90;;;;;;4882924;29;20306;-86
2022/10/07 12:04:29;;;;;;;10.52;1.95;;;18.10;99.90;;;;;;4879704;29;20063;-87
2022/10/07 12:07:32;;;;;;;12.90;2.53;;;18.30;1.00;;;;;;4851823;29;20045;-86
2022/10/07 12:10:36;;;;;;;8.10;2.45;;;18.10;99.90;;;;;;4881553;29;20041;-87
2022/10/07 12:13:11;;;;;;;11.50;2.40;;;18.40;99.90;;;;;;4828297;29;20090;-86
2022/10/07 12:15:41;;;;;;;11.07;2.55;;;18.30;99.90;;;;;;4827368;29;20101;-87
2022/10/07 12:18:07;;;;;;;9.73;2.33;;;18.20;99.90;;;;;;4844782;29;20522;-86
2022/10/07 12:20:36;;;;;;;10.23;2.40;;;17.90;99.90;;;;;;4864879;29;20037;-87
2022/10/07 12:23:17;;;;;;;9.70;2.60;;;18.00;99.90;;;;;;4874865;29;20038;-87
2022/10/07 12:25:47;;;;;;;10.25;2.10;;;18.10;99.90;;;;;;4859131;29;20119;-86
2022/10/07 12:28:22;;;;;;;9.30;2.42;;;18.10;99.90;;;;;;4873011;29;20041;-86
2022/10/07 12:30:56;;;;;;;10.65;3.17;;;18.00;53.50;;;;;;4873080;29;20093;-87
2022/10/07 12:33:32;;;;;;;11.52;2.70;;;18.10;99.90;;;;;;4868436;29;20049;-87
2022/10/07 12:35:58;;;;;;;7.10;2.50;;;18.10;1.00;;;;;;4866442;29;20056;-87
2022/10/07 12:38:26;;;;;;;10.35;2.50;;;18.10;1.00;;;;;;4874791;29;20037;-87
2022/10/07 12:41:18;;;;;;;11.43;2.25;;;18.00;34.30;;;;;;4866685;29;20100;-87
2022/10/07 12:43:56;;;;;;;8.88;2.20;;;17.90;99.90;;;;;;4831627;29;20621;-86
2022/10/07 12:46:24;;;;;;;13.30;2.63;;;18.00;99.90;;;;;;4896818;29;20052;-87
2022/10/07 12:49:01;;;;;;;11.60;2.35;;;18.10;99.90;;;;;;4864674;29;20051;-86
2022/10/07 12:51:37;;;;;;;10.68;2.30;;;18.30;99.90;;;;;;4867997;29;20099;-87
2022/10/07 12:54:25;;;;;;;10.93;2.35;;;18.10;99.90;;;;;;4864108;29;20080;-86
2022/10/07 12:56:51;;;;;;;12.55;2.95;;;17.90;99.90;;;;;;4866849;29;20049;-87
2022/10/07 12:59:47;;;;;;;8.70;2.30;;;17.80;1.00;;;;;;4879620;29;20052;-87
2022/10/07 13:02:30;;;;;;;7.80;2.20;;;17.90;99.90;;;;;;4834431;29;20412;-86
2022/10/07 13:05:27;;;;;;;14.77;2.35;;;18.10;95.00;;;;;;4878976;29;20048;-86
2022/10/07 13:08:14;;;;;;;9.75;2.50;;;18.00;1.00;;;;;;4870983;29;20477;-87
2022/10/07 13:11:22;;;;;;;9.27;2.13;;;18.10;99.90;;;;;;4881366;29;20530;-87
2022/10/07 13:14:22;;;;;;;13.77;2.45;;;18.10;1.00;;;;;;4836705;29;20063;-87
2022/10/07 13:16:48;;;;;;;8.27;2.10;;;18.10;1.00;;;;;;4844744;29;20053;-87
2022/10/07 13:19:45;;;;;;;9.80;2.42;;;18.10;99.90;;;;;;4878868;29;20048;-87